Time,TemperatureF,DewpointF,PressureIn,WindDirection,WindDirectionDegrees,WindSpeedMPH,WindSpeedGustMPH,Humidity,HourlyPrecipIn,Conditions,Clouds,dailyrainin,SoftwareType,DateUTC
2013-03-04 00:05:00,30.2,18.6,29.82,West,270,1.6,3.8,50,0.00,,,0.00,fowsr,2013-03-04 05:05:00,
2013-03-04 00:10:00,30.2,18.6,29.82,NE,45,1.6,2.2,50,0.00,,,0.00,fowsr,2013-03-04 05:10:00,
2013-03-04 00:15:00,30.2,18.6,29.82,North,0,1.6,4.5,50,0.00,,,0.00,fowsr,2013-03-04 05:15:00,
2013-03-04 00:20:00,30.2,18.6,29.82,NE,45,1.6,3.1,50,0.00,,,0.00,fowsr,2013-03-04 05:20:00,
2013-03-04 00:25:00,30.2,18.6,29.82,North,0,3.1,4.5,50,0.00,,,0.00,fowsr,2013-03-04 05:25:00,
2013-03-04 00:30:00,30.0,18.8,29.83,NW,315,2.2,3.1,51,0.00,,,0.00,fowsr,2013-03-04 05:30:00,
2013-03-04 00:35:00,30.0,18.8,29.82,NW,315,4.5,6.0,51,0.00,,,0.00,fowsr,2013-03-04 05:35:00,
2013-03-04 00:45:00,30.2,18.9,29.82,NE,45,2.2,4.5,51,0.00,,,0.00,fowsr,2013-03-04 05:45:00,
2013-03-04 00:50:00,30.2,18.9,29.83,North,0,3.1,6.0,51,0.00,,,0.00,fowsr,2013-03-04 05:50:00,
2013-03-04 00:55:00,30.0,19.1,29.83,West,270,2.2,4.5,52,0.00,,,0.00,fowsr,2013-03-04 05:55:00,
2013-03-04 01:00:00,30.0,18.8,29.83,SE,135,1.6,3.8,51,0.00,,,0.00,fowsr,2013-03-04 06:00:00,
2013-03-04 01:05:00,30.0,18.8,29.83,SE,135,1.6,3.8,51,0.00,,,0.00,fowsr,2013-03-04 06:05:00,
2013-03-04 01:10:00,29.7,18.1,29.83,East,90,2.2,3.8,50,0.00,,,0.00,fowsr,2013-03-04 06:10:00,
2013-03-04 01:15:00,29.5,17.9,29.83,North,0,3.1,4.5,50,0.00,,,0.00,fowsr,2013-03-04 06:15:00,
2013-03-04 01:20:00,29.5,17.9,29.83,SW,225,1.6,3.8,50,0.00,,,0.00,fowsr,2013-03-04 06:20:00,
2013-03-04 01:25:00,29.3,17.8,29.83,North,0,1.6,3.1,50,0.00,,,0.00,fowsr,2013-03-04 06:25:00,
2013-03-04 01:30:00,29.3,17.5,29.83,SW,225,2.2,3.8,49,0.00,,,0.00,fowsr,2013-03-04 06:30:00,
2013-03-04 01:35:00,29.1,17.3,29.82,WSW,247,4.5,11.4,49,0.00,,,0.00,fowsr,2013-03-04 06:35:00,
2013-03-04 01:40:00,29.1,17.0,29.83,NE,45,1.6,3.1,48,0.00,,,0.00,fowsr,2013-03-04 06:40:00,
2013-03-04 01:45:00,28.9,16.8,29.83,SW,225,4.5,6.9,48,0.00,,,0.00,fowsr,2013-03-04 06:45:00,
2013-03-04 01:50:00,28.9,16.5,29.83,NW,315,6.0,13.0,47,0.00,,,0.00,fowsr,2013-03-04 06:50:00,
2013-03-04 01:55:00,28.8,16.3,29.83,North,0,3.1,6.0,47,0.00,,,0.00,fowsr,2013-03-04 06:55:00,
2013-03-04 02:00:00,28.8,16.3,29.83,NE,45,3.1,4.5,47,0.00,,,0.00,fowsr,2013-03-04 07:00:00,
2013-03-04 02:05:00,28.6,16.5,29.83,NW,315,3.1,6.9,48,0.00,,,0.00,fowsr,2013-03-04 07:05:00,
2013-03-04 02:10:00,28.4,16.3,29.83,NW,315,4.5,6.9,48,0.00,,,0.00,fowsr,2013-03-04 07:10:00,
2013-03-04 02:15:00,28.4,16.3,29.83,NNW,337,1.6,3.1,48,0.00,,,0.00,fowsr,2013-03-04 07:15:00,
2013-03-04 02:20:00,28.2,15.1,29.83,NE,45,2.2,3.8,45,0.00,,,0.00,fowsr,2013-03-04 07:20:00,
2013-03-04 02:25:00,28.2,15.1,29.83,North,0,3.1,6.0,45,0.00,,,0.00,fowsr,2013-03-04 07:25:00,
2013-03-04 02:30:00,28.0,15.0,29.83,SW,225,1.6,2.2,45,0.00,,,0.00,fowsr,2013-03-04 07:30:00,
2013-03-04 02:35:00,28.0,15.0,29.83,SW,225,1.6,2.2,45,0.00,,,0.00,fowsr,2013-03-04 07:35:00,
2013-03-04 02:40:00,28.0,15.0,29.83,SSW,202,2.2,4.5,45,0.00,,,0.00,fowsr,2013-03-04 07:40:00,
2013-03-04 02:45:00,28.0,15.3,29.83,NW,315,6.9,12.1,46,0.00,,,0.00,fowsr,2013-03-04 07:45:00,
2013-03-04 02:50:00,28.0,15.3,29.82,East,90,2.2,6.9,46,0.00,,,0.00,fowsr,2013-03-04 07:50:00,
2013-03-04 02:55:00,28.0,15.3,29.83,North,0,3.1,4.5,46,0.00,,,0.00,fowsr,2013-03-04 07:55:00,
2013-03-04 03:00:00,28.2,15.5,29.83,East,90,2.2,4.5,46,0.00,,,0.00,fowsr,2013-03-04 08:00:00,
2013-03-04 03:10:00,28.2,15.5,29.83,NW,315,1.6,3.8,46,0.00,,,0.00,fowsr,2013-03-04 08:10:00,
2013-03-04 03:15:00,28.2,15.5,29.83,South,180,1.6,1.6,46,0.00,,,0.00,fowsr,2013-03-04 08:15:00,
2013-03-04 03:20:00,28.2,15.5,29.83,East,90,1.6,3.1,46,0.00,,,0.00,fowsr,2013-03-04 08:20:00,
2013-03-04 03:25:00,28.2,15.8,29.83,NW,315,2.2,3.8,47,0.00,,,0.00,fowsr,2013-03-04 08:25:00,
2013-03-04 03:30:00,28.4,17.3,29.83,NW,315,1.6,3.8,51,0.00,,,0.00,fowsr,2013-03-04 08:30:00,
2013-03-04 03:35:00,28.4,17.3,29.83,SE,135,3.1,5.4,51,0.00,,,0.00,fowsr,2013-03-04 08:35:00,
2013-03-04 03:40:00,28.6,17.4,29.83,NE,45,2.2,4.5,51,0.00,,,0.00,fowsr,2013-03-04 08:40:00,
2013-03-04 03:45:00,28.6,17.4,29.83,NW,315,6.9,14.5,51,0.00,,,0.00,fowsr,2013-03-04 08:45:00,
2013-03-04 03:50:00,28.6,17.4,29.83,NW,315,4.5,13.0,51,0.00,,,0.00,fowsr,2013-03-04 08:50:00,
2013-03-04 03:55:00,28.6,17.4,29.83,North,0,2.2,5.4,51,0.00,,,0.00,fowsr,2013-03-04 08:55:00,
2013-03-04 04:00:00,28.6,17.7,29.83,NE,45,1.6,3.1,52,0.00,,,0.00,fowsr,2013-03-04 09:00:00,
2013-03-04 04:05:00,28.4,17.3,29.84,North,0,2.2,6.0,51,0.00,,,0.00,fowsr,2013-03-04 09:05:00,
2013-03-04 04:10:00,28.4,17.6,29.84,North,0,3.8,8.3,52,0.00,,,0.00,fowsr,2013-03-04 09:10:00,
2013-03-04 04:15:00,28.4,17.6,29.84,NE,45,7.6,11.4,52,0.00,,,0.00,fowsr,2013-03-04 09:15:00,
2013-03-04 04:20:00,28.4,17.6,29.84,NNW,337,2.2,4.5,52,0.00,,,0.00,fowsr,2013-03-04 09:20:00,
2013-03-04 04:30:00,28.4,17.6,29.84,SE,135,1.6,3.1,52,0.00,,,0.00,fowsr,2013-03-04 09:30:00,
2013-03-04 04:35:00,28.4,17.3,29.84,North,0,3.8,7.6,51,0.00,,,0.00,fowsr,2013-03-04 09:35:00,
2013-03-04 04:40:00,28.4,17.6,29.84,West,270,1.6,2.2,52,0.00,,,0.00,fowsr,2013-03-04 09:40:00,
2013-03-04 04:45:00,28.2,16.2,29.84,SW,225,2.2,3.8,48,0.00,,,0.00,fowsr,2013-03-04 09:45:00,
2013-03-04 04:50:00,28.2,16.2,29.84,WSW,247,3.1,4.5,48,0.00,,,0.00,fowsr,2013-03-04 09:50:00,
2013-03-04 04:55:00,28.2,16.2,29.84,West,270,2.2,3.8,48,0.00,,,0.00,fowsr,2013-03-04 09:55:00,
2013-03-04 05:00:00,28.2,16.2,29.84,West,270,2.2,3.8,48,0.00,,,0.00,fowsr,2013-03-04 10:00:00,
2013-03-04 05:05:00,28.2,16.2,29.84,West,270,2.2,3.8,48,0.00,,,0.00,fowsr,2013-03-04 10:05:00,
2013-03-04 05:10:00,28.2,16.2,29.84,NW,315,4.5,6.0,48,0.00,,,0.00,fowsr,2013-03-04 10:10:00,
2013-03-04 05:15:00,28.4,17.6,29.84,NW,315,1.6,3.1,52,0.00,,,0.00,fowsr,2013-03-04 10:15:00,
2013-03-04 05:20:00,28.4,17.6,29.85,WNW,292,2.2,3.8,52,0.00,,,0.00,fowsr,2013-03-04 10:20:00,
2013-03-04 05:25:00,28.4,17.6,29.85,NW,315,4.5,7.6,52,0.00,,,0.00,fowsr,2013-03-04 10:25:00,
2013-03-04 05:30:00,28.6,17.7,29.85,SW,225,1.6,3.1,52,0.00,,,0.00,fowsr,2013-03-04 10:30:00,
2013-03-04 05:35:00,28.6,17.7,29.85,West,270,2.2,3.8,52,0.00,,,0.00,fowsr,2013-03-04 10:35:00,
2013-03-04 05:40:00,28.6,17.4,29.85,East,90,1.6,3.1,51,0.00,,,0.00,fowsr,2013-03-04 10:40:00,
2013-03-04 05:50:00,28.6,17.4,29.85,SW,225,1.6,3.1,51,0.00,,,0.00,fowsr,2013-03-04 10:50:00,
2013-03-04 05:55:00,28.4,17.3,29.85,South,180,1.6,2.2,51,0.00,,,0.00,fowsr,2013-03-04 10:55:00,
2013-03-04 06:00:00,28.4,17.3,29.86,SE,135,1.6,3.1,51,0.00,,,0.00,fowsr,2013-03-04 11:00:00,
2013-03-04 06:05:00,28.4,17.6,29.86,NW,315,2.2,4.5,52,0.00,,,0.00,fowsr,2013-03-04 11:05:00,
2013-03-04 06:10:00,28.4,17.6,29.86,West,270,1.6,3.1,52,0.00,,,0.00,fowsr,2013-03-04 11:10:00,
2013-03-04 06:15:00,28.4,17.6,29.86,West,270,3.1,4.5,52,0.00,,,0.00,fowsr,2013-03-04 11:15:00,
2013-03-04 06:20:00,28.4,17.6,29.86,SW,225,1.6,3.1,52,0.00,,,0.00,fowsr,2013-03-04 11:20:00,
2013-03-04 06:25:00,28.4,17.6,29.86,WSW,247,2.2,3.8,52,0.00,,,0.00,fowsr,2013-03-04 11:25:00,
2013-03-04 06:30:00,28.6,17.7,29.86,SW,225,2.2,5.4,52,0.00,,,0.00,fowsr,2013-03-04 11:30:00,
2013-03-04 06:35:00,28.6,17.7,29.86,West,270,0.7,1.6,52,0.00,,,0.00,fowsr,2013-03-04 11:35:00,
2013-03-04 06:40:00,28.6,17.7,29.87,East,90,1.6,3.1,52,0.00,,,0.00,fowsr,2013-03-04 11:40:00,
2013-03-04 06:45:00,28.4,17.6,29.87,West,270,0.7,2.2,52,0.00,,,0.00,fowsr,2013-03-04 11:45:00,
2013-03-04 06:50:00,28.6,18.0,29.87,SW,225,3.1,4.5,53,0.00,,,0.00,fowsr,2013-03-04 11:50:00,
2013-03-04 06:55:00,28.6,17.7,29.87,SW,225,3.1,6.0,52,0.00,,,0.00,fowsr,2013-03-04 11:55:00,
2013-03-04 07:00:00,28.6,17.7,29.87,SW,225,2.2,3.8,52,0.00,,,0.00,fowsr,2013-03-04 12:00:00,
2013-03-04 07:05:00,28.6,17.7,29.87,West,270,3.1,8.3,52,0.00,,,0.00,fowsr,2013-03-04 12:05:00,
2013-03-04 07:10:00,28.6,17.4,29.87,West,270,2.2,3.8,51,0.00,,,0.00,fowsr,2013-03-04 12:10:00,
2013-03-04 07:15:00,28.6,17.4,29.87,North,0,3.1,5.4,51,0.00,,,0.00,fowsr,2013-03-04 12:15:00,
2013-03-04 07:20:00,28.8,17.6,29.88,NW,315,2.2,3.8,51,0.00,,,0.00,fowsr,2013-03-04 12:20:00,
2013-03-04 07:25:00,28.9,17.8,29.87,NNW,337,3.1,6.0,51,0.00,,,0.00,fowsr,2013-03-04 12:25:00,
2013-03-04 07:30:00,28.9,17.5,29.88,SW,225,3.1,5.4,50,0.00,,,0.00,fowsr,2013-03-04 12:30:00,
2013-03-04 07:35:00,29.1,17.3,29.87,SW,225,2.2,3.8,49,0.00,,,0.00,fowsr,2013-03-04 12:35:00,
2013-03-04 07:40:00,29.3,17.5,29.88,West,270,3.8,7.6,49,0.00,,,0.00,fowsr,2013-03-04 12:40:00,
2013-03-04 07:45:00,29.5,17.6,29.88,NE,45,2.2,3.1,49,0.00,,,0.00,fowsr,2013-03-04 12:45:00,
2013-03-04 07:50:00,29.7,17.8,29.88,West,270,3.8,6.0,49,0.00,,,0.00,fowsr,2013-03-04 12:50:00,
2013-03-04 07:55:00,29.7,17.5,29.88,North,0,1.6,3.8,48,0.00,,,0.00,fowsr,2013-03-04 12:55:00,
2013-03-04 08:00:00,29.8,17.6,29.88,NW,315,3.1,5.4,48,0.00,,,0.00,fowsr,2013-03-04 13:00:00,
2013-03-04 08:05:00,30.0,17.8,29.88,WSW,247,3.8,6.0,48,0.00,,,0.00,fowsr,2013-03-04 13:05:00,
2013-03-04 08:10:00,30.0,17.8,29.88,WSW,247,2.2,3.8,48,0.00,,,0.00,fowsr,2013-03-04 13:10:00,
2013-03-04 08:15:00,30.2,17.3,29.88,West,270,3.8,8.3,46,0.00,,,0.00,fowsr,2013-03-04 13:15:00,
2013-03-04 08:20:00,30.2,17.3,29.88,SE,135,1.6,3.1,46,0.00,,,0.00,fowsr,2013-03-04 13:20:00,
2013-03-04 08:25:00,30.2,17.3,29.88,NW,315,6.0,7.6,46,0.00,,,0.00,fowsr,2013-03-04 13:25:00,
2013-03-04 08:30:00,30.2,17.3,29.89,NW,315,6.0,13.0,46,0.00,,,0.00,fowsr,2013-03-04 13:30:00,
2013-03-04 08:35:00,30.2,16.9,29.88,North,0,2.2,6.0,45,0.00,,,0.00,fowsr,2013-03-04 13:35:00,
2013-03-04 08:45:00,30.4,17.1,29.88,West,270,2.2,4.5,45,0.00,,,0.00,fowsr,2013-03-04 13:45:00,
2013-03-04 08:55:00,30.4,17.1,29.89,SW,225,2.2,4.5,45,0.00,,,0.00,fowsr,2013-03-04 13:55:00,
2013-03-04 09:00:00,30.7,17.4,29.88,NW,315,5.4,8.3,45,0.00,,,0.00,fowsr,2013-03-04 14:00:00,
2013-03-04 09:05:00,30.9,17.6,29.89,North,0,3.1,5.4,45,0.00,,,0.00,fowsr,2013-03-04 14:05:00,
2013-03-04 09:10:00,31.1,17.7,29.88,NW,315,3.1,4.5,45,0.00,,,0.00,fowsr,2013-03-04 14:10:00,
2013-03-04 09:15:00,31.5,18.1,29.88,East,90,2.2,4.5,45,0.00,,,0.00,fowsr,2013-03-04 14:15:00,
2013-03-04 09:20:00,31.6,17.9,29.89,SW,225,3.1,5.4,44,0.00,,,0.00,fowsr,2013-03-04 14:20:00,
2013-03-04 09:30:00,32.2,18.0,29.89,North,0,6.0,9.2,43,0.00,,,0.00,fowsr,2013-03-04 14:30:00,
2013-03-04 09:35:00,32.4,18.5,29.89,West,270,3.8,6.0,44,0.00,,,0.00,fowsr,2013-03-04 14:35:00,
2013-03-04 09:40:00,32.5,18.3,29.88,West,270,4.5,6.9,43,0.00,,,0.00,fowsr,2013-03-04 14:40:00,
2013-03-04 09:45:00,32.5,18.3,29.89,North,0,6.0,8.3,43,0.00,,,0.00,fowsr,2013-03-04 14:45:00,
2013-03-04 09:50:00,32.7,18.5,29.89,NW,315,2.2,6.0,43,0.00,,,0.00,fowsr,2013-03-04 14:50:00,
2013-03-04 09:55:00,32.9,18.6,29.89,NW,315,3.1,6.0,43,0.00,,,0.00,fowsr,2013-03-04 14:55:00,
2013-03-04 10:00:00,33.1,18.8,29.89,North,0,2.2,4.5,43,0.00,,,0.00,fowsr,2013-03-04 15:00:00,
2013-03-04 10:05:00,33.3,19.0,29.88,South,180,3.8,6.9,43,0.00,,,0.00,fowsr,2013-03-04 15:05:00,
2013-03-04 10:10:00,33.6,19.3,29.89,West,270,6.0,10.7,43,0.00,,,0.00,fowsr,2013-03-04 15:10:00,
2013-03-04 10:15:00,34.0,19.2,29.89,WNW,292,4.5,9.2,42,0.00,,,0.00,fowsr,2013-03-04 15:15:00,
2013-03-04 10:20:00,34.0,19.2,29.89,West,270,3.8,8.3,42,0.00,,,0.00,fowsr,2013-03-04 15:20:00,
2013-03-04 10:25:00,34.2,19.4,29.89,West,270,3.1,4.5,42,0.00,,,0.00,fowsr,2013-03-04 15:25:00,
2013-03-04 10:35:00,34.7,19.9,29.89,West,270,3.1,5.4,42,0.00,,,0.00,fowsr,2013-03-04 15:35:00,
2013-03-04 10:45:00,34.5,19.7,29.89,SW,225,3.1,4.5,42,0.00,,,0.00,fowsr,2013-03-04 15:45:00,
2013-03-04 10:50:00,35.1,20.2,29.88,West,270,3.1,4.5,42,0.00,,,0.00,fowsr,2013-03-04 15:50:00,
2013-03-04 10:55:00,35.2,20.4,29.89,West,270,3.8,7.6,42,0.00,,,0.00,fowsr,2013-03-04 15:55:00,
2013-03-04 11:00:00,35.2,20.4,29.88,WSW,247,4.5,8.3,42,0.00,,,0.00,fowsr,2013-03-04 16:00:00,
2013-03-04 11:05:00,35.1,20.2,29.88,SW,225,3.8,7.6,42,0.00,,,0.00,fowsr,2013-03-04 16:05:00,
2013-03-04 11:10:00,35.8,20.4,29.88,SW,225,3.1,5.4,41,0.00,,,0.00,fowsr,2013-03-04 16:10:00,
2013-03-04 11:15:00,36.3,20.9,29.88,NW,315,3.8,9.8,41,0.00,,,0.00,fowsr,2013-03-04 16:15:00,
2013-03-04 11:25:00,36.9,20.6,29.87,South,180,3.1,6.0,39,0.00,,,0.00,fowsr,2013-03-04 16:25:00,
2013-03-04 11:30:00,36.7,19.6,29.88,WSW,247,4.5,6.0,37,0.00,,,0.00,fowsr,2013-03-04 16:30:00,
2013-03-04 11:35:00,37.2,20.9,29.87,SW,225,4.5,7.6,39,0.00,,,0.00,fowsr,2013-03-04 16:35:00,
2013-03-04 11:40:00,37.4,22.3,29.87,NW,315,1.6,3.1,42,0.00,,,0.00,fowsr,2013-03-04 16:40:00,
2013-03-04 11:45:00,37.8,22.2,29.87,West,270,6.9,9.8,41,0.00,,,0.00,fowsr,2013-03-04 16:45:00,
2013-03-04 11:50:00,37.6,22.0,29.88,NNE,22,3.1,5.4,41,0.00,,,0.00,fowsr,2013-03-04 16:50:00,
2013-03-04 11:55:00,38.1,22.1,29.88,North,0,1.6,4.5,40,0.00,,,0.00,fowsr,2013-03-04 16:55:00,
2013-03-04 12:00:00,38.3,22.7,29.88,NW,315,6.0,15.9,41,0.00,,,0.00,fowsr,2013-03-04 17:00:00,
2013-03-04 12:05:00,38.5,22.4,29.88,West,270,2.2,3.1,40,0.00,,,0.00,fowsr,2013-03-04 17:05:00,
2013-03-04 12:10:00,38.5,22.4,29.88,East,90,1.6,3.1,40,0.00,,,0.00,fowsr,2013-03-04 17:10:00,
2013-03-04 12:15:00,39.0,22.9,29.87,NE,45,3.1,6.9,40,0.00,,,0.00,fowsr,2013-03-04 17:15:00,
2013-03-04 12:20:00,39.4,23.2,29.87,North,0,2.2,5.4,40,0.00,,,0.00,fowsr,2013-03-04 17:20:00,
2013-03-04 12:25:00,39.7,23.1,29.86,SW,225,6.0,11.4,39,0.00,,,0.00,fowsr,2013-03-04 17:25:00,
2013-03-04 12:30:00,39.9,23.3,29.87,North,0,6.0,13.0,39,0.00,,,0.00,fowsr,2013-03-04 17:30:00,
2013-03-04 12:35:00,39.6,22.6,29.86,West,270,5.4,6.9,38,0.00,,,0.00,fowsr,2013-03-04 17:35:00,
2013-03-04 12:40:00,39.7,23.6,29.87,South,180,1.6,3.8,40,0.00,,,0.00,fowsr,2013-03-04 17:40:00,
2013-03-04 12:45:00,40.3,23.6,29.86,NNW,337,2.2,3.8,39,0.00,,,0.00,fowsr,2013-03-04 17:45:00,
2013-03-04 12:50:00,40.6,23.1,29.86,NW,315,5.4,10.7,37,0.00,,,0.00,fowsr,2013-03-04 17:50:00,
2013-03-04 12:55:00,40.3,23.2,29.86,West,270,1.6,5.4,38,0.00,,,0.00,fowsr,2013-03-04 17:55:00,
2013-03-04 13:00:00,40.8,24.1,29.86,WNW,292,3.8,5.4,39,0.00,,,0.00,fowsr,2013-03-04 18:00:00,
2013-03-04 13:05:00,41.2,24.0,29.86,NW,315,4.5,9.8,38,0.00,,,0.00,fowsr,2013-03-04 18:05:00,
2013-03-04 13:10:00,41.0,23.8,29.86,NE,45,3.8,6.9,38,0.00,,,0.00,fowsr,2013-03-04 18:10:00,
2013-03-04 13:15:00,41.4,24.1,29.86,NW,315,3.1,7.6,38,0.00,,,0.00,fowsr,2013-03-04 18:15:00,
2013-03-04 13:20:00,41.2,23.5,29.85,West,270,6.0,13.6,37,0.00,,,0.00,fowsr,2013-03-04 18:20:00,
2013-03-04 13:25:00,41.0,23.4,29.85,SW,225,3.8,6.9,37,0.00,,,0.00,fowsr,2013-03-04 18:25:00,
2013-03-04 13:30:00,41.4,24.1,29.85,NW,315,4.5,11.4,38,0.00,,,0.00,fowsr,2013-03-04 18:30:00,
2013-03-04 13:35:00,41.4,23.7,29.85,NW,315,2.2,4.5,37,0.00,,,0.00,fowsr,2013-03-04 18:35:00,
2013-03-04 13:40:00,41.7,24.5,29.85,WNW,292,4.5,7.6,38,0.00,,,0.00,fowsr,2013-03-04 18:40:00,
2013-03-04 13:45:00,41.5,23.4,29.84,NE,45,4.5,9.2,36,0.00,,,0.00,fowsr,2013-03-04 18:45:00,
2013-03-04 13:50:00,41.5,23.4,29.84,West,270,1.6,4.5,36,0.00,,,0.00,fowsr,2013-03-04 18:50:00,
2013-03-04 13:55:00,41.7,24.0,29.85,SW,225,3.8,9.2,37,0.00,,,0.00,fowsr,2013-03-04 18:55:00,
2013-03-04 14:00:00,42.1,23.9,29.84,ENE,67,6.9,9.8,36,0.00,,,0.00,fowsr,2013-03-04 19:00:00,
2013-03-04 14:10:00,41.7,23.1,29.84,NNW,337,3.1,5.4,35,0.00,,,0.00,fowsr,2013-03-04 19:10:00,
2013-03-04 14:20:00,42.1,23.9,29.84,NW,315,3.1,6.0,36,0.00,,,0.00,fowsr,2013-03-04 19:20:00,
2013-03-04 14:25:00,42.6,24.3,29.84,North,0,3.8,8.3,36,0.00,,,0.00,fowsr,2013-03-04 19:25:00,
2013-03-04 14:30:00,42.6,23.9,29.84,West,270,3.1,6.9,35,0.00,,,0.00,fowsr,2013-03-04 19:30:00,
2013-03-04 14:35:00,43.2,23.9,29.84,SW,225,3.8,5.4,34,0.00,,,0.00,fowsr,2013-03-04 19:35:00,
2013-03-04 14:45:00,43.0,23.2,29.84,North,0,3.1,3.8,33,0.00,,,0.00,fowsr,2013-03-04 19:45:00,
2013-03-04 14:50:00,43.2,23.4,29.84,SW,225,3.1,4.5,33,0.00,,,0.00,fowsr,2013-03-04 19:50:00,
2013-03-04 15:00:00,43.2,22.8,29.84,West,270,3.8,5.4,32,0.00,,,0.00,fowsr,2013-03-04 20:00:00,
2013-03-04 15:05:00,42.8,22.5,29.84,WSW,247,3.1,5.4,32,0.00,,,0.00,fowsr,2013-03-04 20:05:00,
2013-03-04 15:10:00,42.8,23.0,29.84,SW,225,3.1,5.4,33,0.00,,,0.00,fowsr,2013-03-04 20:10:00,
2013-03-04 15:15:00,42.8,23.0,29.84,South,180,6.0,8.3,33,0.00,,,0.00,fowsr,2013-03-04 20:15:00,
2013-03-04 15:25:00,41.9,22.3,29.84,NW,315,5.4,12.1,33,0.00,,,0.00,fowsr,2013-03-04 20:25:00,
2013-03-04 15:30:00,42.1,22.9,29.84,NW,315,6.9,15.9,34,0.00,,,0.00,fowsr,2013-03-04 20:30:00,
2013-03-04 15:35:00,42.3,23.1,29.84,West,270,2.2,3.8,34,0.00,,,0.00,fowsr,2013-03-04 20:35:00,
2013-03-04 15:40:00,41.7,22.6,29.84,West,270,7.6,14.5,34,0.00,,,0.00,fowsr,2013-03-04 20:40:00,
2013-03-04 15:45:00,41.5,22.4,29.84,SW,225,2.2,6.0,34,0.00,,,0.00,fowsr,2013-03-04 20:45:00,
2013-03-04 15:50:00,42.1,23.4,29.84,North,0,3.1,5.4,35,0.00,,,0.00,fowsr,2013-03-04 20:50:00,
2013-03-04 16:00:00,41.7,22.6,29.84,SW,225,3.8,5.4,34,0.00,,,0.00,fowsr,2013-03-04 21:00:00,
2013-03-04 16:05:00,41.7,22.6,29.84,West,270,3.8,7.6,34,0.00,,,0.00,fowsr,2013-03-04 21:05:00,
2013-03-04 16:10:00,41.5,22.4,29.84,NW,315,3.8,5.4,34,0.00,,,0.00,fowsr,2013-03-04 21:10:00,
2013-03-04 16:15:00,41.4,22.3,29.84,West,270,3.1,5.4,34,0.00,,,0.00,fowsr,2013-03-04 21:15:00,
2013-03-04 16:20:00,41.2,22.6,29.85,SW,225,3.1,4.5,35,0.00,,,0.00,fowsr,2013-03-04 21:20:00,
2013-03-04 16:25:00,40.8,23.2,29.85,WSW,247,3.8,6.0,37,0.00,,,0.00,fowsr,2013-03-04 21:25:00,
2013-03-04 16:30:00,39.9,22.0,29.85,NW,315,4.5,6.0,36,0.00,,,0.00,fowsr,2013-03-04 21:30:00,
2013-03-04 16:35:00,39.4,22.4,29.85,North,0,4.5,6.9,38,0.00,,,0.00,fowsr,2013-03-04 21:35:00,
2013-03-04 16:40:00,39.2,22.7,29.85,SW,225,4.5,6.9,39,0.00,,,0.00,fowsr,2013-03-04 21:40:00,
2013-03-04 16:45:00,39.0,22.9,29.85,SSW,202,2.2,6.0,40,0.00,,,0.00,fowsr,2013-03-04 21:45:00,
2013-03-04 16:50:00,38.8,23.6,29.85,West,270,2.2,3.8,42,0.00,,,0.00,fowsr,2013-03-04 21:50:00,
2013-03-04 16:55:00,38.8,23.6,29.86,WSW,247,2.2,5.4,42,0.00,,,0.00,fowsr,2013-03-04 21:55:00,
2013-03-04 17:00:00,38.8,23.6,29.86,West,270,0.7,2.2,42,0.00,,,0.00,fowsr,2013-03-04 22:00:00,
2013-03-04 17:05:00,38.7,23.0,29.86,West,270,1.6,3.1,41,0.00,,,0.00,fowsr,2013-03-04 22:05:00,
2013-03-04 17:10:00,38.3,23.1,29.86,SW,225,2.2,3.8,42,0.00,,,0.00,fowsr,2013-03-04 22:10:00,
2013-03-04 17:15:00,38.1,23.3,29.86,North,0,4.5,6.0,43,0.00,,,0.00,fowsr,2013-03-04 22:15:00,
2013-03-04 17:20:00,37.9,23.2,29.86,SW,225,3.1,5.4,43,0.00,,,0.00,fowsr,2013-03-04 22:20:00,
2013-03-04 17:25:00,37.8,23.0,29.87,West,270,3.8,5.4,43,0.00,,,0.00,fowsr,2013-03-04 22:25:00,
2013-03-04 17:35:00,37.4,23.1,29.88,West,270,1.6,3.1,44,0.00,,,0.00,fowsr,2013-03-04 22:35:00,
2013-03-04 17:40:00,37.0,21.6,29.88,West,270,2.2,4.5,41,0.00,,,0.00,fowsr,2013-03-04 22:40:00,
2013-03-04 17:45:00,36.9,21.4,29.88,West,270,1.6,3.8,41,0.00,,,0.00,fowsr,2013-03-04 22:45:00,
2013-03-04 17:50:00,36.7,21.2,29.88,West,270,2.2,3.1,41,0.00,,,0.00,fowsr,2013-03-04 22:50:00,
2013-03-04 17:55:00,36.3,20.9,29.88,West,270,2.2,3.8,41,0.00,,,0.00,fowsr,2013-03-04 22:55:00,
2013-03-04 18:00:00,36.3,20.9,29.88,SSW,202,3.1,3.8,41,0.00,,,0.00,fowsr,2013-03-04 23:00:00,
2013-03-04 18:05:00,36.1,20.8,29.89,SW,225,1.6,3.1,41,0.00,,,0.00,fowsr,2013-03-04 23:05:00,
2013-03-04 18:10:00,36.0,21.0,29.89,West,270,3.8,6.0,42,0.00,,,0.00,fowsr,2013-03-04 23:10:00,
2013-03-04 18:15:00,35.8,20.8,29.90,NW,315,2.2,3.1,42,0.00,,,0.00,fowsr,2013-03-04 23:15:00,
2013-03-04 18:20:00,35.8,20.8,29.90,SW,225,3.8,6.0,42,0.00,,,0.00,fowsr,2013-03-04 23:20:00,
2013-03-04 18:25:00,35.6,20.7,29.90,West,270,3.8,6.0,42,0.00,,,0.00,fowsr,2013-03-04 23:25:00,
2013-03-04 18:30:00,35.6,20.7,29.90,West,270,2.2,3.8,42,0.00,,,0.00,fowsr,2013-03-04 23:30:00,
2013-03-04 18:35:00,35.4,21.3,29.90,NE,45,1.6,2.2,44,0.00,,,0.00,fowsr,2013-03-04 23:35:00,
2013-03-04 18:40:00,35.2,21.1,29.90,West,270,2.2,3.8,44,0.00,,,0.00,fowsr,2013-03-04 23:40:00,
2013-03-04 18:45:00,35.2,21.1,29.91,SW,225,3.1,5.4,44,0.00,,,0.00,fowsr,2013-03-04 23:45:00,
2013-03-04 18:50:00,35.1,21.0,29.90,WSW,247,3.1,4.5,44,0.00,,,0.00,fowsr,2013-03-04 23:50:00,
2013-03-04 18:55:00,35.1,21.0,29.91,East,90,1.6,3.8,44,0.00,,,0.00,fowsr,2013-03-04 23:55:00,
2013-03-04 19:00:00,34.9,20.8,29.91,West,270,2.2,4.5,44,0.00,,,0.00,fowsr,2013-03-05 00:00:00,
2013-03-04 19:05:00,34.9,20.8,29.91,West,270,3.8,6.0,44,0.00,,,0.00,fowsr,2013-03-05 00:05:00,
2013-03-04 19:10:00,34.9,21.2,29.92,WSW,247,3.1,5.4,45,0.00,,,0.00,fowsr,2013-03-05 00:10:00,
2013-03-04 19:15:00,34.7,21.0,29.92,NW,315,6.0,10.7,45,0.00,,,0.00,fowsr,2013-03-05 00:15:00,
2013-03-04 19:20:00,34.5,20.8,29.92,West,270,2.2,3.1,45,0.00,,,0.00,fowsr,2013-03-05 00:20:00,
2013-03-04 19:30:00,34.5,21.2,29.92,West,270,0.7,3.1,46,0.00,,,0.00,fowsr,2013-03-05 00:30:00,
2013-03-04 19:35:00,34.5,21.2,29.92,SW,225,2.2,3.1,46,0.00,,,0.00,fowsr,2013-03-05 00:35:00,
2013-03-04 19:40:00,34.2,20.9,29.92,NE,45,2.2,3.8,46,0.00,,,0.00,fowsr,2013-03-05 00:40:00,
2013-03-04 19:45:00,34.0,20.7,29.92,WNW,292,3.1,3.8,46,0.00,,,0.00,fowsr,2013-03-05 00:45:00,
2013-03-04 19:50:00,34.0,20.7,29.92,West,270,3.1,5.4,46,0.00,,,0.00,fowsr,2013-03-05 00:50:00,
2013-03-04 19:55:00,34.0,20.7,29.92,SW,225,1.6,3.1,46,0.00,,,0.00,fowsr,2013-03-05 00:55:00,
2013-03-04 20:00:00,33.8,20.9,29.92,NW,315,2.2,4.5,47,0.00,,,0.00,fowsr,2013-03-05 01:00:00,
2013-03-04 20:05:00,33.8,20.9,29.92,SW,225,1.6,2.2,47,0.00,,,0.00,fowsr,2013-03-05 01:05:00,
2013-03-04 20:10:00,33.6,21.1,29.92,SW,225,1.6,2.2,48,0.00,,,0.00,fowsr,2013-03-05 01:10:00,
2013-03-04 20:20:00,33.4,20.9,29.93,South,180,1.6,3.1,48,0.00,,,0.00,fowsr,2013-03-05 01:20:00,
2013-03-04 20:25:00,33.3,21.1,29.93,SW,225,1.6,3.1,49,0.00,,,0.00,fowsr,2013-03-05 01:25:00,
2013-03-04 20:30:00,33.1,20.9,29.93,West,270,1.6,2.2,49,0.00,,,0.00,fowsr,2013-03-05 01:30:00,
2013-03-04 20:35:00,33.1,20.9,29.93,West,270,1.6,2.2,49,0.00,,,0.00,fowsr,2013-03-05 01:35:00,
2013-03-04 20:45:00,32.9,21.4,29.93,West,270,2.2,4.5,51,0.00,,,0.00,fowsr,2013-03-05 01:45:00,
2013-03-04 20:50:00,32.9,21.7,29.93,SW,225,3.1,6.0,52,0.00,,,0.00,fowsr,2013-03-05 01:50:00,
2013-03-04 20:55:00,32.9,21.7,29.93,West,270,2.2,3.8,52,0.00,,,0.00,fowsr,2013-03-05 01:55:00,
2013-03-04 21:00:00,32.9,21.7,29.94,West,270,2.2,3.8,52,0.00,,,0.00,fowsr,2013-03-05 02:00:00,
2013-03-04 21:05:00,32.9,21.7,29.94,West,270,2.2,3.8,52,0.00,,,0.00,fowsr,2013-03-05 02:05:00,
2013-03-04 21:10:00,32.9,21.7,29.94,West,270,2.2,3.8,52,0.00,,,0.00,fowsr,2013-03-05 02:10:00,
2013-03-04 21:20:00,33.1,22.2,29.94,SW,225,1.6,2.2,53,0.00,,,0.00,fowsr,2013-03-05 02:20:00,
2013-03-04 21:30:00,33.1,22.2,29.94,West,270,2.2,3.8,53,0.00,,,0.00,fowsr,2013-03-05 02:30:00,
2013-03-04 21:40:00,33.1,22.2,29.94,West,270,2.2,4.5,53,0.00,,,0.00,fowsr,2013-03-05 02:40:00,
2013-03-04 21:45:00,32.9,22.0,29.95,West,270,1.6,2.2,53,0.00,,,0.00,fowsr,2013-03-05 02:45:00,
2013-03-04 21:50:00,32.9,22.0,29.95,SW,225,1.6,3.1,53,0.00,,,0.00,fowsr,2013-03-05 02:50:00,
2013-03-04 21:55:00,32.9,22.0,29.95,West,270,2.2,3.8,53,0.00,,,0.00,fowsr,2013-03-05 02:55:00,
2013-03-04 22:00:00,32.7,21.9,29.95,West,270,1.6,2.2,53,0.00,,,0.00,fowsr,2013-03-05 03:00:00,
2013-03-04 22:05:00,32.7,21.9,29.95,West,270,3.1,4.5,53,0.00,,,0.00,fowsr,2013-03-05 03:05:00,
2013-03-04 22:10:00,32.7,21.9,29.95,West,270,3.1,6.0,53,0.00,,,0.00,fowsr,2013-03-05 03:10:00,
2013-03-04 22:15:00,32.5,21.7,29.94,SW,225,1.6,2.2,53,0.00,,,0.00,fowsr,2013-03-05 03:15:00,
2013-03-04 22:20:00,32.5,21.7,29.95,West,270,3.1,5.4,53,0.00,,,0.00,fowsr,2013-03-05 03:20:00,
2013-03-04 22:25:00,32.4,21.8,29.95,West,270,1.6,3.1,54,0.00,,,0.00,fowsr,2013-03-05 03:25:00,
2013-03-04 22:30:00,32.2,21.7,29.95,NW,315,1.6,2.2,54,0.00,,,0.00,fowsr,2013-03-05 03:30:00,
2013-03-04 22:35:00,32.2,21.7,29.95,West,270,1.6,2.2,54,0.00,,,0.00,fowsr,2013-03-05 03:35:00,
2013-03-04 22:40:00,32.0,21.5,29.95,West,270,2.2,3.8,54,0.00,,,0.00,fowsr,2013-03-05 03:40:00,
2013-03-04 22:45:00,32.0,21.5,29.95,West,270,2.2,3.1,54,0.00,,,0.00,fowsr,2013-03-05 03:45:00,
2013-03-04 22:50:00,31.8,21.6,29.95,West,270,1.6,2.2,55,0.00,,,0.00,fowsr,2013-03-05 03:50:00,
2013-03-04 22:55:00,31.8,21.9,29.95,West,270,2.2,3.1,56,0.00,,,0.00,fowsr,2013-03-05 03:55:00,
2013-03-04 23:00:00,31.6,21.8,29.95,West,270,0.7,2.2,56,0.00,,,0.00,fowsr,2013-03-05 04:00:00,
2013-03-04 23:05:00,31.6,21.8,29.95,West,270,0.7,2.2,56,0.00,,,0.00,fowsr,2013-03-05 04:05:00,
2013-03-04 23:10:00,31.6,21.8,29.95,NW,315,1.6,2.2,56,0.00,,,0.00,fowsr,2013-03-05 04:10:00,
2013-03-04 23:15:00,31.6,21.8,29.95,West,270,1.6,2.2,56,0.00,,,0.00,fowsr,2013-03-05 04:15:00,
2013-03-04 23:20:00,31.6,21.8,29.95,WNW,292,1.6,2.2,56,0.00,,,0.00,fowsr,2013-03-05 04:20:00,
2013-03-04 23:25:00,31.6,21.8,29.96,SW,225,1.6,3.1,56,0.00,,,0.00,fowsr,2013-03-05 04:25:00,
2013-03-04 23:30:00,31.6,21.8,29.96,West,270,0.0,1.6,56,0.00,,,0.00,fowsr,2013-03-05 04:30:00,
2013-03-04 23:35:00,31.6,22.1,29.96,West,270,1.6,2.2,57,0.00,,,0.00,fowsr,2013-03-05 04:35:00,
2013-03-04 23:40:00,31.6,22.1,29.96,WSW,247,1.6,3.1,57,0.00,,,0.00,fowsr,2013-03-05 04:40:00,
2013-03-04 23:45:00,31.8,22.2,29.96,NW,315,0.7,1.6,57,0.00,,,0.00,fowsr,2013-03-05 04:45:00,
2013-03-04 23:50:00,31.8,22.2,29.96,NE,45,2.2,3.8,57,0.00,,,0.00,fowsr,2013-03-05 04:50:00,
2013-03-04 23:55:00,32.0,22.1,29.96,SSE,157,0.0,0.7,56,0.00,,,0.00,fowsr,2013-03-05 04:55:00,